createdAt,value
2022-11-04T00:02:05.436Z,6.83
2022-11-04T00:04:32.051Z,7.27
2022-11-04T00:06:58.660Z,7.93
2022-11-04T00:09:30.321Z,7.47
2022-11-04T00:12:16.341Z,8.40
2022-11-04T00:14:43.003Z,11.30
2022-11-04T00:17:22.907Z,7.17
2022-11-04T00:20:10.496Z,8.03
2022-11-04T00:22:56.983Z,8.83
2022-11-04T00:25:42.216Z,10.10
2022-11-04T00:28:36.401Z,7.87
2022-11-04T00:31:24.101Z,9.03
2022-11-04T00:33:52.528Z,11.00
2022-11-04T00:36:19.587Z,8.13
2022-11-04T00:38:46.184Z,8.03
2022-11-04T00:41:28.418Z,8.60
2022-11-04T00:44:00.555Z,8.53
2022-11-04T00:46:28.090Z,8.30
2022-11-04T00:48:55.003Z,7.90
2022-11-04T00:51:22.282Z,7.30
2022-11-04T00:53:49.258Z,7.30
2022-11-04T00:56:15.728Z,11.37
2022-11-04T00:58:42.432Z,8.37
2022-11-04T01:01:18.103Z,7.83
2022-11-04T01:03:46.542Z,9.17
2022-11-04T01:06:13.027Z,9.13
2022-11-04T01:08:40.295Z,8.23
2022-11-04T01:11:08.743Z,9.90
2022-11-04T01:13:35.905Z,8.80
2022-11-04T01:16:05.342Z,11.53
2022-11-04T01:18:31.889Z,10.37
2022-11-04T01:21:02.897Z,9.20
2022-11-04T01:23:29.438Z,12.63
2022-11-04T01:25:56.376Z,9.97
2022-11-04T01:28:22.897Z,10.03
2022-11-04T01:30:49.287Z,9.37
2022-11-04T01:33:15.694Z,9.67
2022-11-04T01:35:42.106Z,10.57
2022-11-04T01:38:08.953Z,8.40
2022-11-04T01:40:37.700Z,11.97
2022-11-04T01:43:04.299Z,8.43
2022-11-04T01:45:30.772Z,12.90
2022-11-04T01:48:04.167Z,9.63
2022-11-04T01:50:34.470Z,8.93
2022-11-04T01:53:12.426Z,11.03
2022-11-04T01:55:51.580Z,11.73
2022-11-04T01:58:22.756Z,9.83
2022-11-04T02:00:49.449Z,12.23
2022-11-04T02:03:20.437Z,13.07
2022-11-04T02:05:48.253Z,12.63
2022-11-04T02:08:17.661Z,15.93
2022-11-04T02:10:56.603Z,9.47
2022-11-04T02:13:23.104Z,9.50
2022-11-04T02:16:44.137Z,8.43
2022-11-04T02:20:01.402Z,10.33
2022-11-04T02:22:36.866Z,10.67
2022-11-04T02:25:12.599Z,9.10
2022-11-04T02:28:13.515Z,11.00
2022-11-04T02:31:09.722Z,11.47
2022-11-04T02:33:48.085Z,9.00
2022-11-04T02:36:39.068Z,9.53
2022-11-04T02:39:11.207Z,11.07
2022-11-04T02:41:44.717Z,13.30
2022-11-04T02:44:20.260Z,10.70
2022-11-04T02:47:06.857Z,12.93
2022-11-04T02:49:40.414Z,8.13
2022-11-04T02:52:09.613Z,11.07
2022-11-04T02:54:45.933Z,10.90
2022-11-04T02:57:17.379Z,14.50
2022-11-04T02:59:55.115Z,14.03
2022-11-04T03:02:33.737Z,12.00
2022-11-04T03:05:03.569Z,9.37
2022-11-04T03:07:34.679Z,11.80
2022-11-04T03:10:05.997Z,10.03
2022-11-04T03:12:42.473Z,11.23
2022-11-04T03:15:17.397Z,10.70
2022-11-04T03:17:53.490Z,9.70
2022-11-04T03:20:27.493Z,12.17
2022-11-04T03:22:59.770Z,10.37
2022-11-04T03:25:32.406Z,11.67
2022-11-04T03:28:33.989Z,12.17
2022-11-04T03:31:05.004Z,13.90
2022-11-04T03:33:47.744Z,14.50
2022-11-04T03:36:14.511Z,9.50
2022-11-04T03:38:40.958Z,11.97
2022-11-04T03:41:14.005Z,12.63
2022-11-04T03:43:41.739Z,13.57
2022-11-04T03:46:08.243Z,10.47
2022-11-04T03:48:35.158Z,11.67
2022-11-04T03:51:01.738Z,17.67
2022-11-04T03:53:30.230Z,14.47
2022-11-04T03:56:18.588Z,10.30
2022-11-04T03:58:54.085Z,10.30
2022-11-04T04:01:49.828Z,14.90
2022-11-04T04:04:38.881Z,11.87
2022-11-04T04:07:33.254Z,17.83
2022-11-04T04:10:40.247Z,12.10
2022-11-04T04:13:14.163Z,18.57
2022-11-04T04:15:49.547Z,13.00
2022-11-04T04:18:23.478Z,12.73
2022-11-04T04:20:54.212Z,14.17
2022-11-04T04:23:45.625Z,13.03
2022-11-04T04:26:33.190Z,10.43
2022-11-04T04:29:03.025Z,13.60
2022-11-04T04:31:50.181Z,14.73
2022-11-04T04:34:34.875Z,16.90
2022-11-04T04:37:05.635Z,13.57
2022-11-04T04:40:05.262Z,10.17
2022-11-04T04:42:53.996Z,11.40
2022-11-04T04:45:25.452Z,13.30
2022-11-04T04:47:52.603Z,12.20
2022-11-04T04:50:21.657Z,15.30
2022-11-04T04:52:52.217Z,11.67
2022-11-04T04:55:18.979Z,13.40
2022-11-04T04:57:45.381Z,11.17
2022-11-04T05:00:15.255Z,13.37
2022-11-04T05:02:41.770Z,13.37
2022-11-04T05:05:08.447Z,13.57
2022-11-04T05:07:35.078Z,11.43
2022-11-04T05:10:01.742Z,16.90
2022-11-04T05:12:48.127Z,11.90
2022-11-04T05:15:14.646Z,11.10
2022-11-04T05:17:41.061Z,12.33
2022-11-04T05:20:08.416Z,9.87
2022-11-04T05:22:34.803Z,11.60
2022-11-04T05:25:01.184Z,9.67
2022-11-04T05:27:27.573Z,9.90
2022-11-04T05:29:53.965Z,11.50
2022-11-04T05:32:20.412Z,10.87
2022-11-04T05:34:48.152Z,10.77
2022-11-04T05:37:14.534Z,9.20
2022-11-04T05:39:40.931Z,11.80
2022-11-04T05:42:07.378Z,12.13
2022-11-04T05:44:33.774Z,12.80
2022-11-04T05:47:00.163Z,16.03
2022-11-04T05:49:26.567Z,17.27
2022-11-04T05:51:53.088Z,12.30
2022-11-04T05:54:19.499Z,14.50
2022-11-04T05:56:45.969Z,16.37
2022-11-04T05:59:12.353Z,11.10
2022-11-04T06:01:41.493Z,16.33
2022-11-04T06:04:13.725Z,11.53
2022-11-04T06:06:40.342Z,11.83
2022-11-04T06:09:06.962Z,16.37
2022-11-04T06:11:35.130Z,12.70
2022-11-04T06:14:01.998Z,15.40
2022-11-04T06:16:28.416Z,11.90
2022-11-04T06:18:55.368Z,13.60
2022-11-04T06:21:26.319Z,15.63
2022-11-04T06:23:54.594Z,15.67
2022-11-04T06:26:25.364Z,11.50
2022-11-04T06:28:54.723Z,11.33
2022-11-04T06:31:21.410Z,13.90
2022-11-04T06:33:48.306Z,10.93
2022-11-04T06:36:16.181Z,13.33
2022-11-04T06:38:42.693Z,9.97
2022-11-04T06:41:13.372Z,13.10
2022-11-04T06:43:39.965Z,15.83
2022-11-04T06:46:06.493Z,14.90
2022-11-04T06:48:33.083Z,16.10
2022-11-04T06:51:00.630Z,13.43
2022-11-04T06:53:29.053Z,13.53
2022-11-04T06:56:02.825Z,15.53
2022-11-04T06:58:29.314Z,11.17
2022-11-04T07:00:55.732Z,11.23
2022-11-04T07:03:22.220Z,10.50
2022-11-04T07:05:48.852Z,11.77
2022-11-04T07:08:15.364Z,13.33
2022-11-04T07:10:42.232Z,19.70
2022-11-04T07:13:08.826Z,11.43
2022-11-04T07:15:35.849Z,13.33
2022-11-04T07:18:02.310Z,17.17
2022-11-04T07:20:28.799Z,14.77
2022-11-04T07:22:55.693Z,24.07
2022-11-04T07:25:22.103Z,13.10
2022-11-04T07:27:48.564Z,15.27
2022-11-04T07:30:15.073Z,13.73
2022-11-04T07:32:41.489Z,12.47
2022-11-04T07:35:08.342Z,10.70
2022-11-04T07:37:34.763Z,16.63
2022-11-04T07:40:01.173Z,14.37
2022-11-04T07:42:27.561Z,11.50
2022-11-04T07:44:54.053Z,11.20
2022-11-04T07:47:20.518Z,15.17
2022-11-04T07:49:47.044Z,14.63
2022-11-04T07:52:13.539Z,13.20
2022-11-04T07:54:39.950Z,13.47
2022-11-04T07:57:06.555Z,11.67
2022-11-04T07:59:33.704Z,13.80
2022-11-04T08:02:00.236Z,14.07
2022-11-04T08:04:26.893Z,20.20
2022-11-04T08:06:53.586Z,17.87
2022-11-04T08:09:20.250Z,13.43
2022-11-04T08:11:46.800Z,13.20
2022-11-04T08:14:13.222Z,12.43
2022-11-04T08:16:39.665Z,16.93
2022-11-04T08:19:06.188Z,11.97
2022-11-04T08:21:34.147Z,23.50
2022-11-04T08:24:03.775Z,16.17
2022-11-04T08:26:30.480Z,15.53
2022-11-04T08:28:57.128Z,14.83
2022-11-04T08:31:26.232Z,13.23
2022-11-04T08:33:54.590Z,17.90
2022-11-04T08:36:27.912Z,12.00
2022-11-04T08:38:54.478Z,14.50
2022-11-04T08:41:24.563Z,13.40
2022-11-04T08:43:51.111Z,14.07
2022-11-04T08:46:18.530Z,21.40
2022-11-04T08:48:46.206Z,11.17
2022-11-04T08:51:23.619Z,12.30
2022-11-04T08:53:50.091Z,13.60
2022-11-04T08:56:37.487Z,11.23
2022-11-04T08:59:05.066Z,18.33
2022-11-04T09:01:36.168Z,17.80
2022-11-04T09:04:03.771Z,15.97
2022-11-04T09:06:36.528Z,14.13
2022-11-04T09:09:07.715Z,16.13
2022-11-04T09:11:37.302Z,13.13
2022-11-04T09:14:05.533Z,10.60
2022-11-04T09:16:34.387Z,12.70
2022-11-04T09:19:01.832Z,17.70
2022-11-04T09:21:28.918Z,14.97
2022-11-04T09:23:55.911Z,12.77
2022-11-04T09:26:23.609Z,13.80
2022-11-04T09:28:55.394Z,12.33
2022-11-04T09:31:22.731Z,18.03
2022-11-04T09:33:50.355Z,12.20
2022-11-04T09:36:17.107Z,15.50
2022-11-04T09:38:43.708Z,13.20
2022-11-04T09:41:32.457Z,14.80
2022-11-04T09:44:01.484Z,12.20
2022-11-04T09:46:32.970Z,13.33
2022-11-04T09:49:03.032Z,15.40
2022-11-04T09:51:53.125Z,14.90
2022-11-04T09:54:22.094Z,12.47
2022-11-04T09:56:51.327Z,13.73
2022-11-04T09:59:25.281Z,11.23
2022-11-04T10:02:24.218Z,13.13
2022-11-04T10:05:12.098Z,13.53
2022-11-04T10:08:04.940Z,16.67
2022-11-04T10:10:37.500Z,13.47
2022-11-04T10:13:26.241Z,15.13
2022-11-04T10:16:24.725Z,15.47
2022-11-04T10:19:22.070Z,15.13
2022-11-04T10:22:00.588Z,14.53
2022-11-04T10:24:47.389Z,15.10
2022-11-04T10:27:21.749Z,19.17
2022-11-04T10:30:01.732Z,14.53
2022-11-04T10:32:46.043Z,14.33
2022-11-04T10:35:21.808Z,11.50
2022-11-04T10:37:53.570Z,13.20
2022-11-04T10:40:25.770Z,14.23
2022-11-04T10:42:53.774Z,20.07
2022-11-04T10:45:27.022Z,14.40
2022-11-04T10:47:56.380Z,14.87
2022-11-04T10:50:38.949Z,14.40
2022-11-04T10:53:12.633Z,11.93
2022-11-04T10:55:39.269Z,16.27
2022-11-04T10:58:18.429Z,13.47
2022-11-04T11:00:45.033Z,12.10
2022-11-04T11:03:27.242Z,14.70
2022-11-04T11:06:09.431Z,16.00
2022-11-04T11:08:37.370Z,17.93
2022-11-04T11:11:07.595Z,17.57
2022-11-04T11:13:40.666Z,14.77
2022-11-04T11:16:19.780Z,14.60
2022-11-04T11:19:12.296Z,15.00
2022-11-04T11:21:50.750Z,14.50
2022-11-04T11:24:26.677Z,16.20
2022-11-04T11:26:56.013Z,12.27
2022-11-04T11:29:31.757Z,15.53
2022-11-04T11:32:00.813Z,15.77
2022-11-04T11:34:38.718Z,13.57
2022-11-04T11:37:22.398Z,14.90
2022-11-04T11:39:48.845Z,12.27
2022-11-04T11:42:16.303Z,18.33
2022-11-04T11:44:48.076Z,17.43
2022-11-04T11:47:38.120Z,17.07
2022-11-04T11:50:07.631Z,14.07
2022-11-04T11:52:38.144Z,16.30
2022-11-04T11:55:14.480Z,16.07
2022-11-04T12:00:51.988Z,17.40
2022-11-04T12:09:49.109Z,14.57
2022-11-04T12:12:48.329Z,15.70
2022-11-04T12:15:27.552Z,13.83
2022-11-04T12:18:20.356Z,13.63
2022-11-04T12:21:12.949Z,12.97
2022-11-04T12:24:13.342Z,12.33
2022-11-04T12:26:46.660Z,14.87
2022-11-04T12:29:19.626Z,14.80
2022-11-04T12:32:01.904Z,13.27
2022-11-04T12:34:47.018Z,17.00
2022-11-04T12:37:44.797Z,15.87
2022-11-04T12:40:25.183Z,17.43
2022-11-04T12:43:07.020Z,13.70
2022-11-04T12:45:59.817Z,11.47
2022-11-04T12:48:29.203Z,16.20
2022-11-04T12:51:21.858Z,11.13
2022-11-04T12:54:08.711Z,15.70
2022-11-04T12:56:40.885Z,11.70
2022-11-04T12:59:29.285Z,14.23
2022-11-04T13:02:25.342Z,14.57
2022-11-04T13:04:54.837Z,15.57
2022-11-04T13:07:33.608Z,14.77
2022-11-04T13:10:15.657Z,14.17
2022-11-04T13:12:45.515Z,15.03
2022-11-04T13:15:24.678Z,18.07
2022-11-04T13:17:57.841Z,20.13
2022-11-04T13:20:44.423Z,14.60
2022-11-04T13:23:24.290Z,13.73
2022-11-04T13:25:52.514Z,19.10
2022-11-04T13:28:22.118Z,16.70
2022-11-04T13:31:16.475Z,16.80
2022-11-04T13:33:49.038Z,13.40
2022-11-04T13:36:32.274Z,15.70
2022-11-04T13:39:06.550Z,19.80
2022-11-04T13:41:45.303Z,16.00
2022-11-04T13:44:24.739Z,17.33
2022-11-04T13:46:54.078Z,18.57
2022-11-04T13:49:30.631Z,12.20
2022-11-04T13:52:11.549Z,17.53
2022-11-04T13:54:41.951Z,11.10
2022-11-04T13:57:19.058Z,13.57
2022-11-04T14:00:07.432Z,13.73
2022-11-04T14:02:50.841Z,13.83
2022-11-04T14:05:34.762Z,14.03
2022-11-04T14:08:01.304Z,14.67
2022-11-04T14:10:49.649Z,18.60
2022-11-04T14:13:28.565Z,16.10
2022-11-04T14:16:13.834Z,17.50
2022-11-04T14:18:44.210Z,15.00
2022-11-04T14:21:15.041Z,16.10
2022-11-04T14:23:45.356Z,14.33
2022-11-04T14:26:14.935Z,14.57
2022-11-04T14:28:45.257Z,16.37
2022-11-04T14:31:17.710Z,16.00
2022-11-04T14:33:54.080Z,17.40
2022-11-04T14:36:20.632Z,15.10
2022-11-04T14:39:11.666Z,16.80
2022-11-04T14:41:41.113Z,13.97
2022-11-04T14:44:08.880Z,17.83
2022-11-04T14:46:42.157Z,16.40
2022-11-04T14:49:38.313Z,15.77
2022-11-04T14:52:46.247Z,17.23
2022-11-04T14:55:15.910Z,14.23
2022-11-04T14:57:54.175Z,19.33
2022-11-04T15:00:40.738Z,16.10
2022-11-04T15:06:04.679Z,17.07
2022-11-04T15:08:37.336Z,16.30
2022-11-04T15:11:17.387Z,17.20
2022-11-04T15:13:49.060Z,14.67
2022-11-04T15:16:28.864Z,20.73
2022-11-04T15:18:58.592Z,18.87
2022-11-04T15:21:25.793Z,19.33
2022-11-04T15:23:53.874Z,22.20
2022-11-04T15:26:29.150Z,16.00
2022-11-04T15:28:59.273Z,14.43
2022-11-04T15:31:32.746Z,15.73
2022-11-04T15:34:02.284Z,20.60
2022-11-04T15:36:31.869Z,15.30
2022-11-04T15:39:02.524Z,24.53
2022-11-04T15:41:49.643Z,28.63
2022-11-04T15:44:21.193Z,22.03
2022-11-04T15:46:52.996Z,19.30
2022-11-04T15:49:30.090Z,17.10
2022-11-04T15:52:11.737Z,17.70
2022-11-04T15:54:44.410Z,16.97
2022-11-04T15:57:21.455Z,16.63
2022-11-04T15:59:57.932Z,19.43
2022-11-04T16:02:33.799Z,15.43
2022-11-04T16:05:26.557Z,17.97
2022-11-04T16:07:54.871Z,13.60
2022-11-04T16:10:33.902Z,15.53
2022-11-04T16:13:21.410Z,13.53
2022-11-04T16:15:56.844Z,17.73
2022-11-04T16:18:35.211Z,23.30
2022-11-04T16:21:13.369Z,18.83
2022-11-04T16:23:52.645Z,16.27
2022-11-04T16:26:25.663Z,16.50
2022-11-04T16:28:57.083Z,16.27
2022-11-04T16:31:27.481Z,19.20
2022-11-04T16:33:54.249Z,16.00
2022-11-04T16:36:24.832Z,15.93
2022-11-04T16:39:06.528Z,14.90
2022-11-04T16:41:36.286Z,13.57
2022-11-04T16:44:04.262Z,12.80
2022-11-04T16:46:33.479Z,13.93
2022-11-04T16:48:59.949Z,21.23
2022-11-04T16:51:26.488Z,14.93
2022-11-04T16:53:54.587Z,16.10
2022-11-04T16:56:24.532Z,16.50
2022-11-04T16:58:51.959Z,20.43
2022-11-04T17:01:19.194Z,13.47
2022-11-04T17:03:45.829Z,16.20
2022-11-04T17:06:14.638Z,14.13
2022-11-04T17:08:44.338Z,15.30
2022-11-04T17:11:11.373Z,16.73
2022-11-04T17:13:38.798Z,18.30
2022-11-04T17:16:07.531Z,13.10
2022-11-04T17:18:34.735Z,16.23
2022-11-04T17:21:05.533Z,19.07
2022-11-04T17:23:31.988Z,23.83
2022-11-04T17:25:58.413Z,22.80
2022-11-04T17:28:24.925Z,18.90
2022-11-04T17:30:51.369Z,18.03
2022-11-04T17:33:19.962Z,20.03
2022-11-04T17:35:49.319Z,22.00
2022-11-04T17:38:17.253Z,17.00
2022-11-04T17:41:02.793Z,14.90
2022-11-04T17:43:47.653Z,19.90
2022-11-04T17:46:34.837Z,18.73
2022-11-04T17:49:09.941Z,14.40
2022-11-04T17:51:37.158Z,13.10
2022-11-04T17:54:04.080Z,16.07
2022-11-04T17:56:31.020Z,14.60
2022-11-04T17:59:00.310Z,15.33
2022-11-04T18:01:27.612Z,20.43
2022-11-04T18:03:55.104Z,12.47
2022-11-04T18:06:22.471Z,17.63
2022-11-04T18:08:51.625Z,15.83
2022-11-04T18:11:36.706Z,13.73
2022-11-04T18:14:03.180Z,16.63
2022-11-04T18:16:29.731Z,14.10
2022-11-04T18:18:59.004Z,16.80
2022-11-04T18:21:26.838Z,23.00
2022-11-04T18:23:55.524Z,16.83
2022-11-04T18:26:22.408Z,19.97
2022-11-04T18:28:48.881Z,14.70
2022-11-04T18:31:29.392Z,21.97
2022-11-04T18:33:58.601Z,22.00
2022-11-04T18:36:25.099Z,16.93
2022-11-04T18:38:51.496Z,15.50
2022-11-04T18:41:18.527Z,15.63
2022-11-04T18:43:45.094Z,20.17
2022-11-04T18:46:14.266Z,14.93
2022-11-04T18:48:42.136Z,16.87
2022-11-04T18:51:12.009Z,15.90
2022-11-04T18:53:38.454Z,17.40
2022-11-04T18:56:10.663Z,18.50
2022-11-04T18:58:39.032Z,16.70
2022-11-04T19:01:08.903Z,20.13
2022-11-04T19:03:35.542Z,20.43
2022-11-04T19:06:12.038Z,18.63
2022-11-04T19:08:43.728Z,15.77
2022-11-04T19:11:25.481Z,18.13
2022-11-04T19:13:57.931Z,18.50
2022-11-04T19:16:26.290Z,21.50
2022-11-04T19:18:54.694Z,17.20
2022-11-04T19:21:24.214Z,17.00
2022-11-04T19:23:51.038Z,17.90
2022-11-04T19:26:20.826Z,30.77
2022-11-04T19:28:48.896Z,23.40
2022-11-04T19:31:28.562Z,24.13
2022-11-04T19:33:58.011Z,18.03
2022-11-04T19:36:25.556Z,19.57
2022-11-04T19:38:55.924Z,19.23
2022-11-04T19:41:42.707Z,23.63
2022-11-04T19:44:12.359Z,21.20
2022-11-04T19:46:38.810Z,18.03
2022-11-04T19:49:07.371Z,19.00
2022-11-04T19:51:34.975Z,19.67
2022-11-04T19:54:02.090Z,19.40
2022-11-04T19:56:28.679Z,18.13
2022-11-04T19:58:55.110Z,18.13
2022-11-04T20:01:21.936Z,19.57
2022-11-04T20:03:48.564Z,18.07
2022-11-04T20:06:16.108Z,21.60
2022-11-04T20:08:44.708Z,20.60
2022-11-04T20:11:12.660Z,25.17
2022-11-04T20:13:47.176Z,18.10
2022-11-04T20:16:21.886Z,21.50
2022-11-04T20:19:01.197Z,24.10
2022-11-04T20:21:31.997Z,23.40
2022-11-04T20:24:04.706Z,22.43
2022-11-04T20:26:32.812Z,19.30
2022-11-04T20:28:59.288Z,47.30
2022-11-04T20:31:28.114Z,27.80
2022-11-04T20:33:55.956Z,20.90
2022-11-04T20:36:25.141Z,27.43
2022-11-04T20:38:59.121Z,30.30
2022-11-04T20:41:26.149Z,27.90
2022-11-04T20:43:54.966Z,23.37
2022-11-04T20:46:24.600Z,26.00
2022-11-04T20:48:51.374Z,22.63
2022-11-04T20:51:21.664Z,27.87
2022-11-04T20:53:49.033Z,25.13
2022-11-04T20:56:18.028Z,30.90
2022-11-04T20:58:45.855Z,20.77
2022-11-04T21:01:20.118Z,22.03
2022-11-04T21:03:47.437Z,28.90
2022-11-04T21:06:13.924Z,30.07
2022-11-04T21:08:40.333Z,25.63
2022-11-04T21:11:07.289Z,24.53
2022-11-04T21:13:34.343Z,25.20
2022-11-04T21:16:01.458Z,26.57
2022-11-04T21:18:28.721Z,23.33
2022-11-04T21:20:55.541Z,25.30
2022-11-04T21:23:22.316Z,27.37
2022-11-04T21:26:04.562Z,26.90
2022-11-04T21:28:31.055Z,25.50
2022-11-04T21:31:05.740Z,21.87
2022-11-04T21:33:32.579Z,27.67
2022-11-04T21:36:05.669Z,24.73
2022-11-04T21:38:32.203Z,24.17
2022-11-04T21:41:03.951Z,23.90
2022-11-04T21:43:30.747Z,32.27
2022-11-04T21:46:08.024Z,24.00
2022-11-04T21:48:35.607Z,25.63
2022-11-04T21:51:04.642Z,26.10
2022-11-04T21:53:31.175Z,27.67
2022-11-04T21:56:10.252Z,25.20
2022-11-04T21:58:37.458Z,24.77
2022-11-04T22:01:06.008Z,25.33
2022-11-04T22:03:33.234Z,23.70
2022-11-04T22:06:08.583Z,25.33
2022-11-04T22:08:35.873Z,23.10
2022-11-04T22:11:12.058Z,26.90
2022-11-04T22:13:38.767Z,21.53
2022-11-04T22:16:17.237Z,26.10
2022-11-04T22:18:44.104Z,21.40
2022-11-04T22:21:16.290Z,31.33
2022-11-04T22:23:44.026Z,26.10
2022-11-04T22:26:13.111Z,24.33
2022-11-04T22:28:39.619Z,25.43
2022-11-04T22:31:10.178Z,24.70
2022-11-04T22:33:37.832Z,30.30
2022-11-04T22:36:05.573Z,23.03
2022-11-04T22:38:33.423Z,25.60
2022-11-04T22:41:01.113Z,25.00
2022-11-04T22:43:27.977Z,27.57
2022-11-04T22:45:56.673Z,24.93
2022-11-04T22:48:23.510Z,29.83
2022-11-04T22:50:57.722Z,21.60
2022-11-04T22:53:25.252Z,22.77
2022-11-04T22:55:52.098Z,29.03
2022-11-04T22:58:19.041Z,27.80
2022-11-04T23:00:46.477Z,25.83
2022-11-04T23:03:13.310Z,23.43
2022-11-04T23:05:40.049Z,26.10
2022-11-04T23:08:06.453Z,24.10
2022-11-04T23:10:51.576Z,25.43
2022-11-04T23:13:36.252Z,23.37
2022-11-04T23:16:21.067Z,27.30
2022-11-04T23:18:51.094Z,22.37
2022-11-04T23:21:39.501Z,20.50
2022-11-04T23:24:24.911Z,22.83
2022-11-04T23:26:51.790Z,22.40
2022-11-04T23:29:36.889Z,25.90
2022-11-04T23:32:03.578Z,21.00
2022-11-04T23:34:48.678Z,23.97
2022-11-04T23:37:15.526Z,24.87
2022-11-04T23:39:44.207Z,24.07
2022-11-04T23:42:16.008Z,22.13
2022-11-04T23:45:05.118Z,29.30
2022-11-04T23:47:52.543Z,23.30
2022-11-04T23:50:38.478Z,21.53
2022-11-04T23:53:24.135Z,25.70
2022-11-04T23:56:10.462Z,27.07
2022-11-04T23:58:56.319Z,24.20
